createdAt,value
2023-04-26T00:00:09.779Z,43.5
2023-04-26T00:01:10.763Z,43.4
2023-04-26T00:02:11.824Z,43.5
2023-04-26T00:03:13.034Z,43.5
2023-04-26T00:04:14.218Z,43.5
2023-04-26T00:05:14.858Z,43.5
2023-04-26T00:06:15.800Z,43.6
2023-04-26T00:07:16.804Z,43.1
2023-04-26T00:08:17.819Z,43.4
2023-04-26T00:09:18.787Z,43.2
2023-04-26T00:10:19.884Z,43.2
2023-04-26T00:11:20.794Z,43.3
2023-04-26T00:12:21.863Z,43.4
2023-04-26T00:13:23.705Z,43.2
2023-04-26T00:14:25.097Z,43.3
2023-04-26T00:15:25.984Z,43.4
2023-04-26T00:16:26.990Z,43.4
2023-04-26T00:17:27.920Z,43.4
2023-04-26T00:18:28.788Z,43
2023-04-26T00:19:29.783Z,43.7
2023-04-26T00:20:30.946Z,43.6
2023-04-26T00:21:31.813Z,44
2023-04-26T00:22:32.980Z,44.3
2023-04-26T00:23:34.400Z,45.1
2023-04-26T00:24:35.841Z,44.9
2023-04-26T00:25:36.861Z,45.4
2023-04-26T00:26:37.842Z,45.5
2023-04-26T00:27:38.846Z,45.6
2023-04-26T00:28:39.781Z,45.6
2023-04-26T00:29:40.831Z,45.6
2023-04-26T00:30:41.801Z,45.5
2023-04-26T00:31:43.004Z,45.5
2023-04-26T00:32:43.845Z,45
2023-04-26T00:33:44.813Z,44.9
2023-04-26T00:34:45.823Z,45
2023-04-26T00:35:46.843Z,44.7
2023-04-26T00:36:47.767Z,44.6
2023-04-26T00:37:48.802Z,44.6
2023-04-26T00:38:49.860Z,45.1
2023-04-26T00:39:50.829Z,45.1
2023-04-26T00:40:51.763Z,45.1
2023-04-26T00:41:52.881Z,45
2023-04-26T00:42:53.984Z,44.9
2023-04-26T00:43:54.804Z,44.8
2023-04-26T00:44:55.933Z,44.8
2023-04-26T00:45:56.824Z,44.9
2023-04-26T00:46:57.780Z,45
2023-04-26T00:47:58.921Z,44.9
2023-04-26T00:48:59.803Z,44.9
2023-04-26T00:50:00.870Z,44.9
2023-04-26T00:51:01.820Z,44.8
2023-04-26T00:52:02.811Z,44.4
2023-04-26T00:53:03.888Z,44.3
2023-04-26T00:54:04.829Z,44.2
2023-04-26T00:55:05.867Z,44.1
2023-04-26T00:56:06.941Z,43.9
2023-04-26T00:57:07.982Z,43.4
2023-04-26T00:58:08.864Z,43.6
2023-04-26T00:59:09.832Z,43.7
2023-04-26T01:00:10.874Z,43.6
2023-04-26T01:01:11.884Z,43.4
2023-04-26T01:02:12.930Z,43.3
2023-04-26T01:03:13.977Z,43.1
2023-04-26T01:04:14.932Z,43.1
2023-04-26T01:05:15.655Z,43.1
2023-04-26T01:06:16.881Z,43.1
2023-04-26T01:07:17.784Z,43.1
2023-04-26T01:08:18.840Z,43.2
2023-04-26T01:09:19.844Z,43.4
2023-04-26T01:10:20.883Z,43.3
2023-04-26T01:11:21.861Z,43.4
2023-04-26T01:12:22.883Z,43.4
2023-04-26T01:13:23.952Z,43.6
2023-04-26T01:14:24.884Z,43.8
2023-04-26T01:15:25.998Z,43.6
2023-04-26T01:16:26.980Z,43.6
2023-04-26T01:17:27.979Z,43.8
2023-04-26T01:18:28.816Z,43.8
2023-04-26T01:19:29.963Z,44
2023-04-26T01:20:30.940Z,44
2023-04-26T01:21:32.407Z,44
2023-04-26T01:22:34.501Z,44.2
2023-04-26T01:23:35.866Z,44.1
2023-04-26T01:24:36.923Z,44.1
2023-04-26T01:25:37.842Z,43.9
2023-04-26T01:26:38.858Z,43.9
2023-04-26T01:27:39.898Z,44.1
2023-04-26T01:28:41.019Z,44.2
2023-04-26T01:29:41.980Z,44.2
2023-04-26T01:30:42.992Z,44
2023-04-26T01:31:44.093Z,44.2
2023-04-26T01:32:44.905Z,44.1
2023-04-26T01:35:47.877Z,44
2023-04-26T01:36:51.065Z,44.1
2023-04-26T01:37:51.937Z,44.1
2023-04-26T01:38:53.062Z,44.2
2023-04-26T01:39:53.850Z,44.3
2023-04-26T01:40:54.794Z,44.4
2023-04-26T01:41:56.015Z,44.5
2023-04-26T01:42:56.851Z,44.4
2023-04-26T01:43:57.837Z,44.5
2023-04-26T01:44:58.805Z,44.7
2023-04-26T01:45:59.869Z,45
2023-04-26T01:47:01.021Z,45.3
2023-04-26T01:48:01.896Z,45.6
2023-04-26T01:49:02.821Z,45.7
2023-04-26T01:50:03.879Z,45.7
2023-04-26T01:51:04.971Z,45.8
2023-04-26T01:52:05.989Z,45.8
2023-04-26T01:53:06.807Z,45.3
2023-04-26T01:54:07.777Z,45.5
2023-04-26T01:55:08.900Z,45.3
2023-04-26T01:56:09.920Z,45.3
2023-04-26T01:57:11.054Z,45.3
2023-04-26T01:58:12.054Z,45.4
2023-04-26T01:59:12.777Z,45.5
2023-04-26T02:00:13.875Z,45.6
2023-04-26T02:01:14.937Z,45.4
2023-04-26T02:02:16.007Z,45.2
2023-04-26T02:03:16.892Z,45.3
2023-04-26T02:04:17.729Z,45.7
2023-04-26T02:05:18.942Z,46
2023-04-26T02:06:19.913Z,46
2023-04-26T02:07:20.851Z,46.1
2023-04-26T02:08:21.871Z,46.3
2023-04-26T02:09:22.889Z,46.9
2023-04-26T02:10:23.906Z,47.2
2023-04-26T02:11:25.049Z,47.3
2023-04-26T02:12:25.812Z,47.2
2023-04-26T02:13:26.992Z,47
2023-04-26T02:14:28.175Z,47.3
2023-04-26T02:15:29.037Z,47.3
2023-04-26T02:16:29.889Z,47.4
2023-04-26T02:17:31.010Z,47.3
2023-04-26T02:18:31.901Z,47.2
2023-04-26T02:19:32.873Z,47
2023-04-26T02:20:34.517Z,46.9
2023-04-26T02:21:35.897Z,46.8
2023-04-26T02:22:36.863Z,46.6
2023-04-26T02:23:37.904Z,46.6
2023-04-26T02:24:38.934Z,46.8
2023-04-26T02:25:39.876Z,46.8
2023-04-26T02:26:40.853Z,46.9
2023-04-26T02:27:41.891Z,46.8
2023-04-26T02:28:42.912Z,47
2023-04-26T02:29:44.890Z,46.9
2023-04-26T02:30:44.886Z,47
2023-04-26T02:31:45.954Z,46.9
2023-04-26T02:32:46.939Z,46.7
2023-04-26T02:33:47.963Z,46.5
2023-04-26T02:34:48.885Z,46.8
2023-04-26T02:35:49.977Z,46.9
2023-04-26T02:36:50.855Z,47
2023-04-26T02:37:51.984Z,46.9
2023-04-26T02:38:53.434Z,46.9
2023-04-26T02:39:53.935Z,47
2023-04-26T02:40:54.910Z,47.1
2023-04-26T02:41:55.857Z,47.2
2023-04-26T02:42:56.931Z,47.5
2023-04-26T02:43:57.893Z,47.7
2023-04-26T02:44:59.378Z,47.9
2023-04-26T02:45:59.886Z,47.9
2023-04-26T02:47:01.006Z,48.3
2023-04-26T02:48:02.383Z,48.5
2023-04-26T02:49:04.103Z,48.6
2023-04-26T02:50:04.889Z,48.7
2023-04-26T02:51:06.093Z,48.6
2023-04-26T02:52:06.864Z,48.4
2023-04-26T02:53:07.858Z,48.3
2023-04-26T02:54:08.874Z,48.3
2023-04-26T02:55:09.852Z,48.4
2023-04-26T02:56:11.173Z,48.3
2023-04-26T02:57:12.034Z,48.4
2023-04-26T02:58:13.052Z,48.8
2023-04-26T02:59:13.919Z,49
2023-04-26T03:00:14.923Z,49.1
2023-04-26T03:01:15.960Z,49.6
2023-04-26T03:02:17.050Z,49.9
2023-04-26T03:03:18.251Z,50.5
2023-04-26T03:04:18.977Z,50.8
2023-04-26T03:05:19.963Z,50.4
2023-04-26T03:06:21.546Z,50.6
2023-04-26T03:07:23.024Z,50
2023-04-26T03:08:23.897Z,50.3
2023-04-26T03:09:25.200Z,50.5
2023-04-26T03:10:25.924Z,50.4
2023-04-26T03:11:26.870Z,50.1
2023-04-26T03:12:27.829Z,50.1
2023-04-26T03:13:28.977Z,50.3
2023-04-26T03:14:29.853Z,50.3
2023-04-26T03:15:30.919Z,50.1
2023-04-26T03:16:31.933Z,49.8
2023-04-26T03:17:32.932Z,49.6
2023-04-26T03:18:34.475Z,49.3
2023-04-26T03:19:35.930Z,49.1
2023-04-26T03:20:36.912Z,49.1
2023-04-26T03:21:37.893Z,49.4
2023-04-26T03:22:38.874Z,49.8
2023-04-26T03:23:39.893Z,50.1
2023-04-26T03:24:41.036Z,49.8
2023-04-26T03:25:42.010Z,50.4
2023-04-26T03:26:42.907Z,50.5
2023-04-26T03:27:43.983Z,50.4
2023-04-26T03:28:44.865Z,50.2
2023-04-26T03:29:45.863Z,49.9
2023-04-26T03:30:47.581Z,49.6
2023-04-26T03:31:49.148Z,49.3
2023-04-26T03:32:49.949Z,49.2
2023-04-26T03:33:50.935Z,49.1
2023-04-26T03:34:51.918Z,48.9
2023-04-26T03:35:52.898Z,48.6
2023-04-26T03:36:53.956Z,48.3
2023-04-26T03:37:56.676Z,48.2
2023-04-26T03:38:55.837Z,48.2
2023-04-26T03:39:56.977Z,48.2
2023-04-26T03:40:58.000Z,48
2023-04-26T03:41:58.955Z,48.3
2023-04-26T03:42:59.897Z,48.4
2023-04-26T03:44:00.915Z,47.5
2023-04-26T03:45:02.243Z,48.6
2023-04-26T03:46:03.025Z,49.9
2023-04-26T03:47:04.115Z,50.5
2023-04-26T03:48:04.994Z,50.6
2023-04-26T03:49:05.967Z,50.4
2023-04-26T03:50:07.138Z,50.1
2023-04-26T03:51:07.816Z,49.9
2023-04-26T03:52:08.840Z,49.7
2023-04-26T03:53:09.891Z,49.8
2023-04-26T03:54:10.939Z,49.7
2023-04-26T03:55:11.999Z,49.8
2023-04-26T03:56:12.875Z,50.1
2023-04-26T03:57:13.936Z,50.1
2023-04-26T03:58:14.934Z,50
2023-04-26T03:59:15.935Z,49.8
2023-04-26T04:00:16.875Z,49.6
2023-04-26T04:01:17.884Z,49.5
2023-04-26T04:02:19.861Z,49.4
2023-04-26T04:03:21.182Z,49.3
2023-04-26T04:04:22.309Z,49.3
2023-04-26T04:05:23.036Z,49.2
2023-04-26T04:06:24.067Z,49.4
2023-04-26T04:07:24.881Z,49.3
2023-04-26T04:08:26.229Z,49.3
2023-04-26T04:09:27.103Z,49.4
2023-04-26T04:10:27.979Z,49.5
2023-04-26T04:11:28.894Z,49.4
2023-04-26T04:12:29.909Z,49.3
2023-04-26T04:13:30.917Z,49.1
2023-04-26T04:14:32.254Z,49.1
2023-04-26T04:15:33.292Z,49.1
2023-04-26T04:16:35.182Z,49
2023-04-26T04:17:38.288Z,48.3
2023-04-26T04:18:36.935Z,49.3
2023-04-26T04:19:37.952Z,49.5
2023-04-26T04:20:38.890Z,49.1
2023-04-26T04:21:39.937Z,49.5
2023-04-26T04:22:40.901Z,49.3
2023-04-26T04:23:42.220Z,49.4
2023-04-26T04:24:43.066Z,49.7
2023-04-26T04:25:44.010Z,49.9
2023-04-26T04:26:44.857Z,50.1
2023-04-26T04:27:45.900Z,50
2023-04-26T04:28:46.979Z,49.7
2023-04-26T04:29:47.872Z,50
2023-04-26T04:30:49.092Z,50.1
2023-04-26T04:31:50.023Z,50
2023-04-26T04:32:50.929Z,49.6
2023-04-26T04:33:51.931Z,49.5
2023-04-26T04:34:53.779Z,49.2
2023-04-26T04:35:54.823Z,49.3
2023-04-26T04:36:55.961Z,49.1
2023-04-26T04:37:56.952Z,49.3
2023-04-26T04:38:58.431Z,49.5
2023-04-26T04:40:00.014Z,48.8
2023-04-26T04:41:01.070Z,49.8
2023-04-26T04:42:02.052Z,50.1
2023-04-26T04:43:03.109Z,50.6
2023-04-26T04:44:04.330Z,51
2023-04-26T04:45:05.977Z,50.8
2023-04-26T04:46:07.238Z,50.7
2023-04-26T04:47:08.059Z,50.6
2023-04-26T04:48:09.511Z,50.4
2023-04-26T04:49:10.942Z,50.4
2023-04-26T04:50:12.032Z,49.8
2023-04-26T04:51:13.053Z,50
2023-04-26T04:52:13.967Z,49.8
2023-04-26T04:53:14.902Z,49.7
2023-04-26T04:54:15.917Z,50.4
2023-04-26T04:55:16.980Z,50.8
2023-04-26T04:56:17.941Z,51
2023-04-26T04:57:18.948Z,51.1
2023-04-26T04:58:19.917Z,50.7
2023-04-26T04:59:20.973Z,50.9
2023-04-26T05:00:21.975Z,50.8
2023-04-26T05:01:22.924Z,50.8
2023-04-26T05:02:24.233Z,50.6
2023-04-26T05:03:25.088Z,50.7
2023-04-26T05:04:26.111Z,50.5
2023-04-26T05:05:27.053Z,50.4
2023-04-26T05:06:27.995Z,50.3
2023-04-26T05:07:29.212Z,49.3
2023-04-26T05:08:29.966Z,49.6
2023-04-26T05:09:30.954Z,49.6
2023-04-26T05:10:31.915Z,49.7
2023-04-26T05:11:32.954Z,50
2023-04-26T05:12:33.935Z,50.1
2023-04-26T05:13:34.928Z,50
2023-04-26T05:14:36.021Z,49.6
2023-04-26T05:15:37.034Z,49.2
2023-04-26T05:16:38.180Z,49.5
2023-04-26T05:17:39.232Z,49.7
2023-04-26T05:18:40.028Z,49.1
2023-04-26T05:19:41.000Z,48.9
2023-04-26T05:20:42.089Z,48.9
2023-04-26T05:21:43.138Z,48.9
2023-04-26T05:22:44.014Z,48.9
2023-04-26T05:23:44.923Z,49.1
2023-04-26T05:24:45.922Z,49.3
2023-04-26T05:25:46.913Z,49
2023-04-26T05:26:47.957Z,49
2023-04-26T05:27:49.054Z,49.5
2023-04-26T05:28:49.957Z,50
2023-04-26T05:29:50.977Z,49.8
2023-04-26T05:30:51.948Z,49.9
2023-04-26T05:31:53.015Z,50.4
2023-04-26T05:32:54.188Z,50.2
2023-04-26T05:33:55.000Z,49.9
2023-04-26T05:34:55.939Z,49.8
2023-04-26T05:35:56.922Z,49.5
2023-04-26T05:36:57.958Z,48.9
2023-04-26T05:37:58.956Z,48.8
2023-04-26T05:39:00.031Z,48.8
2023-04-26T05:40:01.108Z,48.8
2023-04-26T05:41:02.019Z,49
2023-04-26T05:42:03.004Z,49.6
2023-04-26T05:43:03.958Z,49.3
2023-04-26T05:44:05.031Z,48.6
2023-04-26T05:45:05.980Z,48.7
2023-04-26T05:46:07.192Z,48.6
2023-04-26T05:47:07.993Z,48.9
2023-04-26T05:48:09.120Z,48.6
2023-04-26T05:49:10.043Z,47.9
2023-04-26T05:50:10.966Z,47.6
2023-04-26T05:51:12.067Z,47.4
2023-04-26T05:52:13.115Z,47.3
2023-04-26T05:53:14.418Z,47.6
2023-04-26T05:54:16.175Z,47.7
2023-04-26T05:55:16.977Z,47.7
2023-04-26T05:56:18.075Z,47.5
2023-04-26T05:57:19.075Z,47.2
2023-04-26T05:58:19.964Z,46.8
2023-04-26T05:59:21.000Z,46.4
2023-04-26T06:00:22.219Z,46.2
2023-04-26T06:01:22.993Z,46.4
2023-04-26T06:02:24.185Z,46.3
2023-04-26T06:03:25.097Z,45.9
2023-04-26T06:04:26.158Z,46.4
2023-04-26T06:05:27.138Z,46.6
2023-04-26T06:06:28.001Z,46.4
2023-04-26T06:07:29.111Z,45.8
2023-04-26T06:08:29.980Z,46.4
2023-04-26T06:09:30.970Z,47.4
2023-04-26T06:10:31.940Z,47.8
2023-04-26T06:11:32.996Z,47.6
2023-04-26T06:12:33.994Z,47.1
2023-04-26T06:13:34.959Z,46
2023-04-26T06:14:35.953Z,45.7
2023-04-26T06:15:36.953Z,44.7
2023-04-26T06:16:38.009Z,44.2
2023-04-26T06:17:39.077Z,44.6
2023-04-26T06:18:39.944Z,45
2023-04-26T06:19:40.974Z,44.4
2023-04-26T06:20:41.934Z,44.4
2023-04-26T06:21:43.372Z,44.2
2023-04-26T06:22:44.936Z,44.1
2023-04-26T06:23:45.958Z,44.3
2023-04-26T06:24:46.953Z,45
2023-04-26T06:25:47.999Z,45.2
2023-04-26T06:26:48.929Z,45.4
2023-04-26T06:27:50.008Z,44.7
2023-04-26T06:28:50.907Z,44.1
2023-04-26T06:29:51.906Z,44.3
2023-04-26T06:30:53.036Z,45.4
2023-04-26T06:31:53.985Z,45.5
2023-04-26T06:32:55.017Z,45.3
2023-04-26T06:33:56.176Z,44.9
2023-04-26T06:34:56.894Z,44.6
2023-04-26T06:35:57.962Z,44
2023-04-26T06:36:59.295Z,42.7
2023-04-26T06:37:59.938Z,43.4
2023-04-26T06:39:01.111Z,44
2023-04-26T06:40:02.300Z,44.1
2023-04-26T06:41:02.976Z,44.2
2023-04-26T06:42:04.158Z,44.3
2023-04-26T06:43:05.040Z,44.8
2023-04-26T06:44:06.014Z,44.5
2023-04-26T06:45:07.210Z,44.2
2023-04-26T06:46:08.100Z,43.7
2023-04-26T06:47:09.042Z,42.7
2023-04-26T06:48:10.305Z,42.4
2023-04-26T06:49:11.119Z,41.7
2023-04-26T06:50:17.098Z,42
2023-04-26T06:51:17.998Z,42.1
2023-04-26T06:52:20.574Z,41.7
2023-04-26T06:53:21.815Z,41.7
2023-04-26T06:54:20.924Z,41.7
2023-04-26T06:55:22.005Z,42.1
2023-04-26T06:56:23.016Z,41.7
2023-04-26T06:57:24.128Z,40.9
2023-04-26T06:58:24.992Z,41
2023-04-26T06:59:26.007Z,41.1
2023-04-26T07:00:27.068Z,41.5
2023-04-26T07:01:28.042Z,42.7
2023-04-26T07:02:29.172Z,42.2
2023-04-26T07:03:30.120Z,41.9
2023-04-26T07:04:31.090Z,41.7
2023-04-26T07:05:32.012Z,40.9
2023-04-26T07:06:33.035Z,40.7
2023-04-26T07:07:34.209Z,41
2023-04-26T07:08:35.017Z,41.9
2023-04-26T07:09:36.094Z,40.8
2023-04-26T07:10:38.148Z,40
2023-04-26T07:11:39.180Z,40.6
2023-04-26T07:12:40.313Z,41.3
2023-04-26T07:13:41.118Z,41.9
2023-04-26T07:14:42.020Z,42.2
2023-04-26T07:15:43.217Z,42.4
2023-04-26T07:16:46.029Z,41.4
2023-04-26T07:17:47.185Z,39.8
2023-04-26T07:18:48.025Z,38
2023-04-26T07:19:48.984Z,37.7
2023-04-26T07:20:49.942Z,37.5
2023-04-26T07:21:50.911Z,38.6
2023-04-26T07:22:51.926Z,38.2
2023-04-26T07:23:53.132Z,38.2
2023-04-26T07:24:54.004Z,37.2
2023-04-26T07:25:55.718Z,37
2023-04-26T07:26:56.039Z,37.3
2023-04-26T07:27:57.025Z,37.6
2023-04-26T07:28:58.111Z,37.7
2023-04-26T07:29:59.161Z,38.3
2023-04-26T07:31:00.057Z,38.4
2023-04-26T07:32:01.002Z,37.4
2023-04-26T07:33:02.373Z,36.9
2023-04-26T07:34:02.938Z,36.9
2023-04-26T07:35:04.202Z,37.4
2023-04-26T07:36:04.929Z,36.6
2023-04-26T07:37:05.979Z,37.3
2023-04-26T07:38:06.919Z,37.8
2023-04-26T07:39:07.945Z,37.3
2023-04-26T07:40:09.229Z,36.9
2023-04-26T07:41:10.015Z,35.9
2023-04-26T07:42:10.976Z,35.7
2023-04-26T07:43:11.940Z,36.1
2023-04-26T07:44:12.975Z,35.6
2023-04-26T07:45:14.160Z,35.1
2023-04-26T07:46:15.302Z,34.4
2023-04-26T07:47:18.756Z,35.8
2023-04-26T07:48:20.775Z,36.6
2023-04-26T07:49:22.044Z,36
2023-04-26T07:50:23.196Z,35.1
2023-04-26T07:51:24.039Z,34.9
2023-04-26T07:52:25.477Z,33.7
2023-04-26T07:53:27.045Z,33.2
2023-04-26T07:54:28.024Z,34.7
2023-04-26T07:55:29.755Z,34.3
2023-04-26T07:56:31.013Z,34.5
2023-04-26T07:57:32.044Z,32.1
2023-04-26T07:58:33.015Z,31.6
2023-04-26T07:59:34.688Z,32.2
2023-04-26T08:00:36.079Z,32.3
2023-04-26T08:01:37.593Z,32.4
2023-04-26T08:02:44.857Z,31.9
2023-04-26T08:04:41.272Z,30.6
2023-04-26T08:05:42.813Z,31.2
2023-04-26T08:06:43.079Z,32.4
2023-04-26T08:07:44.054Z,33.1
2023-04-26T08:08:45.062Z,33.8
2023-04-26T08:09:46.164Z,34.7
2023-04-26T08:10:47.055Z,33.7
2023-04-26T08:11:48.053Z,32.5
2023-04-26T08:12:49.048Z,33.3
2023-04-26T08:13:50.019Z,33.8
2023-04-26T08:14:51.075Z,33.2
2023-04-26T08:15:52.019Z,31.9
2023-04-26T08:16:53.138Z,31.7
2023-04-26T08:17:54.188Z,32.5
2023-04-26T08:18:55.205Z,31.6
2023-04-26T08:19:56.029Z,32.1
2023-04-26T08:20:57.073Z,31.1
2023-04-26T08:21:58.115Z,29.8
2023-04-26T08:22:59.057Z,29.5
2023-04-26T08:24:00.314Z,30.1
2023-04-26T08:25:01.084Z,30.4
2023-04-26T08:26:02.364Z,31.2
2023-04-26T08:27:03.049Z,30.3
2023-04-26T08:28:04.192Z,30.3
2023-04-26T08:29:05.213Z,29.5
2023-04-26T08:30:06.053Z,29.9
2023-04-26T08:31:07.149Z,30
2023-04-26T08:32:08.492Z,30
2023-04-26T08:33:10.479Z,30.2
2023-04-26T08:34:11.072Z,30
2023-04-26T08:35:12.291Z,30.1
2023-04-26T08:36:13.200Z,29.1
2023-04-26T08:37:14.036Z,30
2023-04-26T08:38:15.068Z,31.4
2023-04-26T08:39:15.966Z,31.4
2023-04-26T08:40:17.232Z,32.5
2023-04-26T08:41:18.259Z,31
2023-04-26T08:42:19.049Z,30.3
2023-04-26T08:43:20.050Z,30
2023-04-26T08:44:21.035Z,29.4
2023-04-26T08:45:22.012Z,29.5
2023-04-26T08:46:23.032Z,30.3
2023-04-26T08:47:24.071Z,29.4
2023-04-26T08:48:24.959Z,30.6
2023-04-26T08:49:26.172Z,29.9
2023-04-26T08:50:27.053Z,29.9
2023-04-26T08:51:28.168Z,28.8
2023-04-26T08:52:29.318Z,29.2
2023-04-26T08:53:30.055Z,29.1
2023-04-26T08:54:31.156Z,29.8
2023-04-26T08:55:32.094Z,30
2023-04-26T08:56:33.177Z,30.7
2023-04-26T08:57:34.163Z,30.8
2023-04-26T08:58:35.074Z,31
2023-04-26T08:59:36.942Z,30.4
2023-04-26T09:00:38.100Z,30.4
2023-04-26T09:01:39.105Z,29.9
2023-04-26T09:02:40.412Z,29.4
2023-04-26T09:03:41.054Z,29.2
2023-04-26T09:04:42.294Z,29.8
2023-04-26T09:05:43.025Z,30.1
2023-04-26T09:06:44.183Z,30.8
2023-04-26T09:07:45.085Z,30.8
2023-04-26T09:08:46.263Z,30.4
2023-04-26T09:09:47.083Z,31.2
2023-04-26T09:10:48.054Z,31
2023-04-26T09:11:49.032Z,31
2023-04-26T09:12:50.063Z,31.6
2023-04-26T09:13:51.828Z,32.3
2023-04-26T09:14:53.098Z,30.9
2023-04-26T09:15:54.153Z,31
2023-04-26T09:16:55.103Z,32.5
2023-04-26T09:17:56.052Z,31.8
2023-04-26T09:18:57.104Z,32.1
2023-04-26T09:19:58.081Z,30.5
2023-04-26T09:20:59.056Z,30.5
2023-04-26T09:22:00.202Z,31.2
2023-04-26T09:23:01.073Z,31.7
2023-04-26T09:24:02.096Z,30.8
2023-04-26T09:25:03.355Z,29.3
2023-04-26T09:26:04.192Z,30.2
2023-04-26T09:27:05.067Z,28.8
2023-04-26T09:28:06.134Z,27.8
2023-04-26T09:29:07.075Z,28.2
2023-04-26T09:30:08.093Z,28.9
2023-04-26T09:31:09.190Z,29.7
2023-04-26T09:32:10.095Z,28.3
2023-04-26T09:33:11.097Z,28.4
2023-04-26T09:34:12.149Z,28.8
2023-04-26T09:35:13.053Z,29.6
2023-04-26T09:36:14.222Z,29.3
2023-04-26T09:37:15.095Z,27.7
2023-04-26T09:38:16.187Z,27.7
2023-04-26T09:39:18.017Z,27.6
2023-04-26T09:40:19.058Z,28.4
2023-04-26T09:41:20.232Z,28.4
2023-04-26T09:42:21.090Z,28.8
2023-04-26T09:43:22.208Z,28.7
2023-04-26T09:44:23.080Z,28.1
2023-04-26T09:45:24.202Z,29
2023-04-26T09:46:25.240Z,28.9
2023-04-26T09:47:26.104Z,29.3
2023-04-26T09:48:27.178Z,29.5
2023-04-26T09:49:28.058Z,29.7
2023-04-26T09:50:29.166Z,29.8
2023-04-26T09:51:30.164Z,28.9
2023-04-26T09:52:31.178Z,29.1
2023-04-26T09:53:32.157Z,29
2023-04-26T09:54:33.076Z,29
2023-04-26T09:55:35.609Z,29.1
2023-04-26T09:56:35.374Z,29.1
2023-04-26T09:57:36.238Z,29
2023-04-26T09:58:37.081Z,28.9
2023-04-26T09:59:38.130Z,29.6
2023-04-26T10:00:39.330Z,30.1
2023-04-26T10:01:40.234Z,30.2
2023-04-26T10:02:41.512Z,31
2023-04-26T10:03:42.371Z,31
2023-04-26T10:04:43.140Z,30.9
2023-04-26T10:05:44.154Z,31.1
2023-04-26T10:06:45.081Z,31.7
2023-04-26T10:07:46.072Z,32
2023-04-26T10:08:47.089Z,32.3
2023-04-26T10:09:48.173Z,31.8
2023-04-26T10:10:49.821Z,32
2023-04-26T10:11:51.092Z,31.4
2023-04-26T10:12:52.552Z,31.7
2023-04-26T10:13:54.132Z,31.9
2023-04-26T10:14:55.380Z,31.1
2023-04-26T10:15:56.114Z,31.2
2023-04-26T10:16:57.248Z,30.5
2023-04-26T10:17:58.201Z,29.7
2023-04-26T10:18:59.471Z,29.4
2023-04-26T10:20:00.212Z,29.7
2023-04-26T10:21:01.186Z,29.7
2023-04-26T10:22:02.880Z,29
2023-04-26T10:23:04.148Z,28.7
2023-04-26T10:24:05.149Z,28.8
2023-04-26T10:25:06.174Z,28.5
2023-04-26T10:26:07.704Z,28.4
2023-04-26T10:27:09.218Z,28.4
2023-04-26T10:28:10.193Z,29.4
2023-04-26T10:29:11.551Z,29.7
2023-04-26T10:30:13.151Z,29.5
2023-04-26T10:31:14.197Z,29.5
2023-04-26T10:32:15.696Z,29.6
2023-04-26T10:33:17.271Z,29.4
2023-04-26T10:34:18.132Z,29.2
2023-04-26T10:35:19.442Z,29.5
2023-04-26T10:36:20.171Z,30
2023-04-26T10:37:21.164Z,31
2023-04-26T10:38:22.564Z,29.7
2023-04-26T10:39:24.199Z,29.7
2023-04-26T10:40:25.193Z,28.7
2023-04-26T10:41:26.155Z,29
2023-04-26T10:42:27.497Z,28.2
2023-04-26T10:43:28.115Z,28.7
2023-04-26T10:44:29.036Z,28.6
2023-04-26T10:45:30.074Z,28.5
2023-04-26T10:46:31.379Z,27.7
2023-04-26T10:47:32.417Z,27.4
2023-04-26T10:48:33.099Z,27.2
2023-04-26T10:49:34.116Z,26.9
2023-04-26T10:50:35.095Z,25.9
2023-04-26T10:51:36.112Z,26.7
2023-04-26T10:52:37.145Z,26.5
2023-04-26T10:53:38.123Z,27.2
2023-04-26T10:54:39.159Z,26.2
2023-04-26T10:55:40.157Z,25.5
2023-04-26T10:56:41.318Z,24.9
2023-04-26T10:57:42.136Z,25.7
2023-04-26T10:58:43.149Z,26
2023-04-26T10:59:54.171Z,25.7
2023-04-26T11:00:45.136Z,24.8
2023-04-26T11:01:46.999Z,25.3
2023-04-26T11:02:50.480Z,25.3
2023-04-26T11:03:49.842Z,25.7
2023-04-26T11:04:51.096Z,26
2023-04-26T11:05:52.127Z,25.8
2023-04-26T11:06:53.168Z,26.2
2023-04-26T11:07:54.176Z,26.9
2023-04-26T11:08:55.583Z,27.4
2023-04-26T11:09:56.097Z,26.9
2023-04-26T11:10:57.118Z,26.8
2023-04-26T11:11:58.185Z,27.7
2023-04-26T11:12:59.157Z,28.3
2023-04-26T11:14:00.303Z,28.5
2023-04-26T11:15:01.254Z,28.9
2023-04-26T11:16:02.226Z,28.9
2023-04-26T11:17:03.191Z,28.5
2023-04-26T11:18:04.120Z,28.8
2023-04-26T11:19:05.056Z,28.8
2023-04-26T11:20:06.220Z,29
2023-04-26T11:21:07.132Z,28.8
2023-04-26T11:22:08.099Z,28.6
2023-04-26T11:23:09.136Z,27.8
2023-04-26T11:24:10.278Z,27.1
2023-04-26T11:25:11.265Z,26.8
2023-04-26T11:26:12.319Z,27.3
2023-04-26T11:27:13.496Z,26.6
2023-04-26T11:28:15.695Z,26
2023-04-26T11:29:17.175Z,25.8
2023-04-26T11:30:18.141Z,25.9
2023-04-26T11:31:19.540Z,25.6
2023-04-26T11:32:20.144Z,26.6
2023-04-26T11:33:21.136Z,27.5
2023-04-26T11:34:22.103Z,27.3
2023-04-26T11:35:23.093Z,26.8
2023-04-26T11:36:24.281Z,26.5
2023-04-26T11:37:25.297Z,27.8
2023-04-26T11:38:26.170Z,25.1
2023-04-26T11:39:27.134Z,24.2
2023-04-26T11:40:28.337Z,24.7
2023-04-26T11:41:29.164Z,24.2
2023-04-26T11:42:30.196Z,23.5
2023-04-26T11:43:31.298Z,24.8
2023-04-26T11:44:32.183Z,24.1
2023-04-26T11:45:33.279Z,24.5
2023-04-26T11:46:34.158Z,24.2
2023-04-26T11:47:35.122Z,24.2
2023-04-26T11:48:36.277Z,24.7
2023-04-26T11:49:37.528Z,25.2
2023-04-26T11:50:39.168Z,25.1
2023-04-26T11:51:40.065Z,25.4
2023-04-26T11:52:42.239Z,25.9
2023-04-26T11:53:43.605Z,25.8
2023-04-26T11:54:45.455Z,25.5
2023-04-26T11:55:46.338Z,24.8
2023-04-26T11:56:47.283Z,24.6
2023-04-26T11:57:48.083Z,23.4
2023-04-26T11:58:49.107Z,23.3
2023-04-26T11:59:50.176Z,22.7
2023-04-26T12:00:51.158Z,22.2
2023-04-26T12:01:52.057Z,21.8
2023-04-26T12:02:54.656Z,22.4
2023-04-26T12:03:55.575Z,22
2023-04-26T12:04:57.365Z,21.4
2023-04-26T12:05:58.199Z,21.6
2023-04-26T12:06:59.101Z,22.6
2023-04-26T12:08:00.087Z,21.5
2023-04-26T12:09:01.174Z,21.8
2023-04-26T12:10:02.256Z,23.4
2023-04-26T12:11:03.144Z,24.3
2023-04-26T12:12:04.299Z,23
2023-04-26T12:13:05.161Z,21.8
2023-04-26T12:14:06.315Z,22.2
2023-04-26T12:15:07.205Z,23.3
2023-04-26T12:16:18.619Z,22.7
2023-04-26T12:17:09.123Z,22.5
2023-04-26T12:18:10.769Z,23.9
2023-04-26T12:19:11.097Z,24.7
2023-04-26T12:20:12.175Z,25.1
2023-04-26T12:21:13.946Z,23.6
2023-04-26T12:22:15.335Z,23.9
2023-04-26T12:23:16.336Z,22.7
2023-04-26T12:24:17.565Z,24.2
2023-04-26T12:25:19.313Z,24.3
2023-04-26T12:26:20.816Z,25.5
2023-04-26T12:27:27.360Z,24.7
2023-04-26T12:28:28.178Z,25
2023-04-26T12:29:29.123Z,25.7
2023-04-26T12:30:30.228Z,25
2023-04-26T12:31:31.677Z,24.1
2023-04-26T12:32:33.542Z,25
2023-04-26T12:33:34.137Z,24.3
2023-04-26T12:34:35.171Z,23.8
2023-04-26T12:35:36.179Z,23.5
2023-04-26T12:36:37.188Z,24.5
2023-04-26T12:37:38.185Z,24.9
2023-04-26T12:38:39.148Z,25.6
2023-04-26T12:39:40.234Z,26.2
2023-04-26T12:40:41.993Z,25.9
2023-04-26T12:41:43.278Z,26.8
2023-04-26T12:42:44.150Z,27.4
2023-04-26T12:43:45.108Z,28.1
2023-04-26T12:44:46.156Z,28.9
2023-04-26T12:45:47.293Z,28.7
2023-04-26T12:46:48.400Z,28.8
2023-04-26T12:47:49.275Z,28.8
2023-04-26T12:48:50.498Z,28.4
2023-04-26T12:49:51.157Z,28.6
2023-04-26T12:50:52.679Z,27.7
2023-04-26T12:51:54.266Z,27.5
2023-04-26T12:52:55.181Z,28.1
2023-04-26T12:53:56.496Z,28.2
2023-04-26T12:54:57.129Z,27.8
2023-04-26T12:55:58.728Z,26.1
2023-04-26T12:57:00.238Z,24.9
2023-04-26T12:58:01.316Z,24.9
2023-04-26T12:59:02.346Z,24.9
2023-04-26T13:00:03.376Z,25.7
2023-04-26T13:01:04.242Z,26
2023-04-26T13:02:05.737Z,25.9
2023-04-26T13:03:07.295Z,25.4
2023-04-26T13:04:08.592Z,24
2023-04-26T13:05:09.170Z,24
2023-04-26T13:06:10.319Z,24
2023-04-26T13:07:11.294Z,23.8
2023-04-26T13:08:12.311Z,23.9
2023-04-26T13:09:13.126Z,24.4
2023-04-26T13:10:14.137Z,24.2
2023-04-26T13:11:15.322Z,24.3
2023-04-26T13:12:16.401Z,24.3
2023-04-26T13:13:17.155Z,24.3
2023-04-26T13:14:18.418Z,25.3
2023-04-26T13:15:19.160Z,26.1
2023-04-26T13:16:20.346Z,27.4
2023-04-26T13:17:21.170Z,27.1
2023-04-26T13:18:22.152Z,27
2023-04-26T13:19:23.155Z,27
2023-04-26T13:20:25.957Z,26.9
2023-04-26T13:21:25.157Z,27.4
2023-04-26T13:22:26.210Z,27.4
2023-04-26T13:23:27.180Z,26.8
2023-04-26T13:24:28.200Z,27.3
2023-04-26T13:25:29.219Z,27.7
2023-04-26T13:26:30.217Z,26.7
2023-04-26T13:27:31.830Z,26.2
2023-04-26T13:28:32.181Z,26.5
2023-04-26T13:29:33.143Z,27.8
2023-04-26T13:30:34.365Z,27.3
2023-04-26T13:31:35.171Z,26.7
2023-04-26T13:32:36.197Z,27.1
2023-04-26T13:33:37.212Z,27.2
2023-04-26T13:34:38.139Z,27.2
2023-04-26T13:35:39.200Z,27.1
2023-04-26T13:36:40.151Z,27.6
2023-04-26T13:37:41.119Z,27.6
2023-04-26T13:38:42.145Z,27.8
2023-04-26T13:39:43.229Z,27.4
2023-04-26T13:40:44.262Z,27.1
2023-04-26T13:41:45.170Z,27.4